createdAt,value
2018-08-06T00:00:19.241Z,0.00
2018-08-06T00:01:19.231Z,0.00
2018-08-06T00:02:19.235Z,0.00
2018-08-06T00:03:19.222Z,0.00
2018-08-06T00:04:19.218Z,0.00
2018-08-06T00:05:19.212Z,0.00
2018-08-06T00:06:19.206Z,0.00
2018-08-06T00:07:19.197Z,0.00
2018-08-06T00:08:19.195Z,0.00
2018-08-06T00:09:19.187Z,0.00
2018-08-06T00:10:19.183Z,0.00
2018-08-06T00:11:19.169Z,0.00
2018-08-06T00:12:19.174Z,0.00
2018-08-06T00:13:19.160Z,0.00
2018-08-06T00:14:19.156Z,0.00
2018-08-06T00:15:19.152Z,0.00
2018-08-06T00:16:19.143Z,0.00
2018-08-06T00:17:19.133Z,0.00
2018-08-06T00:18:19.131Z,0.00
2018-08-06T00:19:19.129Z,0.00
2018-08-06T00:20:19.119Z,0.00
2018-08-06T00:21:19.111Z,0.00
2018-08-06T00:22:19.105Z,0.00
2018-08-06T00:23:19.101Z,0.00
2018-08-06T00:24:19.094Z,0.00
2018-08-06T00:25:19.089Z,0.00
2018-08-06T00:26:19.084Z,0.00
2018-08-06T00:27:19.074Z,0.00
2018-08-06T00:28:19.070Z,0.00
2018-08-06T00:29:19.064Z,0.00
2018-08-06T00:30:19.064Z,0.00
2018-08-06T00:31:19.055Z,0.00
2018-08-06T00:32:19.048Z,0.00
2018-08-06T00:33:19.041Z,0.00
2018-08-06T00:34:19.033Z,0.00
2018-08-06T00:35:19.031Z,0.00
2018-08-06T00:36:19.023Z,0.00
2018-08-06T00:37:19.019Z,0.00
2018-08-06T00:38:19.011Z,0.00
2018-08-06T00:39:19.009Z,0.00
2018-08-06T00:40:19.007Z,0.00
2018-08-06T00:41:18.996Z,0.00
2018-08-06T00:42:18.992Z,0.00
2018-08-06T00:43:18.984Z,0.00
2018-08-06T00:44:18.976Z,0.00
2018-08-06T00:45:19.036Z,0.00
2018-08-06T00:46:18.960Z,0.00
2018-08-06T00:47:18.956Z,0.00
2018-08-06T00:48:18.949Z,0.00
2018-08-06T00:49:18.953Z,0.00
2018-08-06T00:50:18.946Z,0.00
2018-08-06T00:51:18.937Z,0.00
2018-08-06T00:52:18.931Z,0.00
2018-08-06T00:53:18.922Z,0.00
2018-08-06T00:54:18.920Z,0.00
2018-08-06T00:55:18.911Z,0.00
2018-08-06T00:56:18.913Z,0.00
2018-08-06T00:57:18.896Z,0.00
2018-08-06T00:58:18.894Z,0.00
2018-08-06T00:59:18.888Z,0.00
2018-08-06T01:00:18.878Z,0.00
2018-08-06T01:01:18.877Z,0.00
2018-08-06T01:02:18.868Z,0.00
2018-08-06T01:03:18.869Z,0.00
2018-08-06T01:04:18.855Z,0.00
2018-08-06T01:05:18.853Z,0.00
2018-08-06T01:06:18.842Z,0.00
2018-08-06T01:07:18.841Z,0.00
2018-08-06T01:08:18.831Z,0.00
2018-08-06T01:09:18.827Z,0.00
2018-08-06T01:10:18.820Z,0.00
2018-08-06T01:11:18.816Z,0.00
2018-08-06T01:12:18.812Z,0.00
2018-08-06T01:13:18.801Z,0.00
2018-08-06T01:14:18.795Z,0.00
2018-08-06T01:15:18.788Z,0.00
2018-08-06T01:16:18.781Z,0.00
2018-08-06T01:17:18.777Z,0.00
2018-08-06T01:18:18.770Z,0.00
2018-08-06T01:19:18.767Z,0.00
2018-08-06T01:20:18.757Z,0.00
2018-08-06T01:21:18.754Z,0.00
2018-08-06T01:22:18.746Z,0.00
2018-08-06T01:23:18.748Z,0.00
2018-08-06T01:24:18.736Z,0.00
2018-08-06T01:25:18.736Z,0.00
2018-08-06T01:26:18.722Z,0.00
2018-08-06T01:27:18.718Z,0.00
2018-08-06T01:28:18.711Z,0.00
2018-08-06T01:29:18.707Z,0.00
2018-08-06T01:30:18.701Z,0.00
2018-08-06T01:31:18.718Z,0.00
2018-08-06T01:32:18.681Z,0.00
2018-08-06T01:33:18.684Z,0.00
2018-08-06T01:34:18.675Z,0.00
2018-08-06T01:35:18.669Z,0.00
2018-08-06T01:36:18.660Z,0.00
2018-08-06T01:37:18.654Z,0.00
2018-08-06T01:38:18.650Z,0.00
2018-08-06T01:39:18.647Z,0.00
2018-08-06T01:40:18.640Z,0.00
2018-08-06T01:41:18.628Z,0.00
2018-08-06T01:42:18.630Z,0.00
2018-08-06T01:43:18.616Z,0.00
2018-08-06T01:44:18.611Z,0.00
2018-08-06T01:45:18.605Z,0.00
2018-08-06T01:46:18.599Z,0.00
2018-08-06T01:47:18.595Z,0.00
2018-08-06T01:48:18.590Z,0.00
2018-08-06T01:49:18.585Z,0.00
2018-08-06T01:50:18.576Z,0.00
2018-08-06T01:51:18.570Z,0.00
2018-08-06T01:52:18.564Z,0.00
2018-08-06T01:53:18.557Z,0.00
2018-08-06T01:54:18.547Z,0.00
2018-08-06T01:55:18.545Z,0.00
2018-08-06T01:56:18.537Z,0.00
2018-08-06T01:57:18.537Z,0.00
2018-08-06T01:58:18.525Z,0.00
2018-08-06T01:59:18.519Z,0.00
2018-08-06T02:00:18.516Z,0.00
2018-08-06T02:01:18.512Z,0.00
2018-08-06T02:02:18.498Z,0.00
2018-08-06T02:03:18.498Z,0.00
2018-08-06T02:04:18.488Z,0.00
2018-08-06T02:05:18.482Z,0.00
2018-08-06T02:06:18.480Z,0.00
2018-08-06T02:07:18.478Z,0.00
2018-08-06T02:08:18.465Z,0.00
2018-08-06T02:09:18.461Z,0.00
2018-08-06T02:10:18.452Z,0.00
2018-08-06T02:11:18.445Z,0.00
2018-08-06T02:12:18.437Z,0.00
2018-08-06T02:13:18.434Z,0.00
2018-08-06T02:14:18.434Z,0.00
2018-08-06T02:15:18.419Z,0.00
2018-08-06T02:16:18.415Z,0.00
2018-08-06T02:17:18.408Z,0.00
2018-08-06T02:18:18.398Z,0.00
2018-08-06T02:19:18.397Z,0.00
2018-08-06T02:20:18.389Z,0.00
2018-08-06T02:21:18.380Z,0.00
2018-08-06T02:22:18.375Z,0.00
2018-08-06T02:23:18.367Z,0.00
2018-08-06T02:24:18.368Z,0.00
2018-08-06T02:25:18.362Z,0.00
2018-08-06T02:26:18.350Z,0.00
2018-08-06T02:27:18.350Z,0.00
2018-08-06T02:28:18.338Z,0.00
2018-08-06T02:29:18.334Z,0.00
2018-08-06T02:30:18.331Z,0.00
2018-08-06T02:31:18.320Z,0.00
2018-08-06T02:32:18.312Z,0.00
2018-08-06T02:33:18.307Z,0.00
2018-08-06T02:34:18.303Z,0.00
2018-08-06T02:35:18.297Z,0.00
2018-08-06T02:36:18.289Z,0.00
2018-08-06T02:37:18.281Z,0.00
2018-08-06T02:38:18.277Z,0.00
2018-08-06T02:39:18.273Z,0.00
2018-08-06T02:40:18.264Z,0.00
2018-08-06T02:41:18.255Z,0.00
2018-08-06T02:42:18.248Z,0.00
2018-08-06T02:43:18.252Z,0.00
2018-08-06T02:44:18.236Z,0.00
2018-08-06T02:45:18.233Z,0.00
2018-08-06T02:46:18.228Z,0.00
2018-08-06T02:47:18.218Z,0.00
2018-08-06T02:48:18.218Z,0.00
2018-08-06T02:49:18.207Z,0.00
2018-08-06T02:50:18.199Z,0.00
2018-08-06T02:51:18.195Z,0.00
2018-08-06T02:52:18.191Z,0.00
2018-08-06T02:53:18.181Z,0.00
2018-08-06T02:54:18.173Z,0.00
2018-08-06T02:55:18.170Z,0.00
2018-08-06T02:56:18.166Z,0.00
2018-08-06T02:57:18.154Z,0.00
2018-08-06T02:58:18.151Z,0.00
2018-08-06T02:59:18.143Z,0.00
2018-08-06T03:00:18.268Z,0.00
2018-08-06T03:01:18.128Z,0.00
2018-08-06T03:02:18.138Z,0.00
2018-08-06T03:03:18.118Z,0.00
2018-08-06T03:04:18.111Z,0.00
2018-08-06T03:05:18.105Z,0.00
2018-08-06T03:06:18.098Z,0.00
2018-08-06T03:07:18.093Z,0.00
2018-08-06T03:08:18.085Z,0.00
2018-08-06T03:09:18.081Z,0.00
2018-08-06T03:10:18.071Z,0.00
2018-08-06T03:11:18.063Z,0.00
2018-08-06T03:12:18.060Z,0.00
2018-08-06T03:13:18.056Z,0.00
2018-08-06T03:14:18.045Z,0.00
2018-08-06T03:15:18.040Z,0.00
2018-08-06T03:16:18.036Z,0.00
2018-08-06T03:17:18.024Z,0.00
2018-08-06T03:18:18.018Z,0.00
2018-08-06T03:19:18.018Z,0.00
2018-08-06T03:20:18.009Z,0.00
2018-08-06T03:21:18.002Z,0.00
2018-08-06T03:22:17.995Z,0.00
2018-08-06T03:23:17.991Z,0.00
2018-08-06T03:24:17.982Z,0.00
2018-08-06T03:25:17.971Z,0.00
2018-08-06T03:26:17.969Z,0.00
2018-08-06T03:27:17.967Z,0.00
2018-08-06T03:28:17.956Z,0.00
2018-08-06T03:29:17.953Z,0.00
2018-08-06T03:30:17.944Z,0.00
2018-08-06T03:31:17.940Z,0.00
2018-08-06T03:32:17.925Z,0.00
2018-08-06T03:33:17.925Z,0.00
2018-08-06T03:34:17.915Z,0.00
2018-08-06T03:35:17.911Z,0.00
2018-08-06T03:36:17.905Z,0.00
2018-08-06T03:37:17.906Z,0.00
2018-08-06T03:38:17.902Z,0.00
2018-08-06T03:39:17.886Z,0.00
2018-08-06T03:40:17.922Z,0.00
2018-08-06T03:41:17.869Z,0.00
2018-08-06T03:42:17.867Z,0.00
2018-08-06T03:43:17.861Z,0.00
2018-08-06T03:44:17.856Z,0.00
2018-08-06T03:45:17.848Z,0.00
2018-08-06T03:46:17.842Z,0.00
2018-08-06T03:47:17.840Z,0.00
2018-08-06T03:48:17.834Z,0.00
2018-08-06T03:49:17.820Z,0.00
2018-08-06T03:50:17.818Z,0.00
2018-08-06T03:51:17.815Z,0.00
2018-08-06T03:52:17.802Z,0.00
2018-08-06T03:53:17.789Z,0.00
2018-08-06T03:54:17.787Z,0.00
2018-08-06T03:55:17.779Z,0.00
2018-08-06T03:56:17.774Z,0.00
2018-08-06T03:57:17.774Z,0.00
2018-08-06T03:58:17.766Z,0.00
2018-08-06T03:59:17.754Z,0.00
2018-08-06T04:00:17.753Z,0.00
2018-08-06T04:01:17.739Z,0.00
2018-08-06T04:02:17.731Z,0.00
2018-08-06T04:03:17.729Z,0.00
2018-08-06T04:04:17.736Z,0.00
2018-08-06T04:05:17.717Z,0.00
2018-08-06T04:06:17.710Z,0.00
2018-08-06T04:07:17.703Z,0.00
2018-08-06T04:08:17.696Z,0.00
2018-08-06T04:09:17.692Z,0.00
2018-08-06T04:10:17.682Z,0.00
2018-08-06T04:11:17.679Z,0.00
2018-08-06T04:12:17.674Z,0.00
2018-08-06T04:13:17.666Z,0.00
2018-08-06T04:14:17.663Z,0.00
2018-08-06T04:15:17.648Z,0.00
2018-08-06T04:16:17.643Z,0.00
2018-08-06T04:17:17.641Z,0.00
2018-08-06T04:18:17.632Z,0.00
2018-08-06T04:19:17.629Z,0.00
2018-08-06T04:20:17.621Z,0.00
2018-08-06T04:21:17.607Z,0.00
2018-08-06T04:22:17.604Z,0.00
2018-08-06T04:23:17.593Z,0.00
2018-08-06T04:24:17.590Z,0.00
2018-08-06T04:25:17.586Z,0.00
2018-08-06T04:26:17.581Z,0.00
2018-08-06T04:27:17.568Z,0.00
2018-08-06T04:28:17.570Z,0.00
2018-08-06T04:29:17.556Z,0.00
2018-08-06T04:30:17.552Z,0.00
2018-08-06T04:31:17.544Z,0.00
2018-08-06T04:32:17.542Z,0.00
2018-08-06T04:33:25.287Z,0.00
2018-08-06T04:34:17.527Z,0.00
2018-08-06T04:35:17.522Z,0.00
2018-08-06T04:36:17.514Z,0.00
2018-08-06T04:37:17.504Z,0.00
2018-08-06T04:38:17.498Z,0.00
2018-08-06T04:39:17.497Z,0.00
2018-08-06T04:40:17.490Z,0.00
2018-08-06T04:41:17.478Z,0.00
2018-08-06T04:42:17.471Z,0.00
2018-08-06T04:43:17.470Z,0.00
2018-08-06T04:44:17.459Z,0.00
2018-08-06T04:45:17.449Z,0.00
2018-08-06T04:46:17.448Z,0.00
2018-08-06T04:47:17.444Z,0.00
2018-08-06T04:48:17.432Z,0.00
2018-08-06T04:49:17.427Z,0.00
2018-08-06T04:50:17.426Z,0.00
2018-08-06T04:51:17.414Z,0.00
2018-08-06T04:52:17.416Z,0.00
2018-08-06T04:53:17.401Z,0.00
2018-08-06T04:54:17.396Z,0.00
2018-08-06T04:55:17.386Z,0.00
2018-08-06T04:56:17.379Z,0.00
2018-08-06T04:57:17.375Z,0.00
2018-08-06T04:58:17.373Z,0.00
2018-08-06T04:59:17.372Z,5.63
2018-08-06T05:00:17.356Z,5.63
2018-08-06T05:01:17.356Z,5.63
2018-08-06T05:02:17.344Z,5.63
2018-08-06T05:03:17.334Z,5.63
2018-08-06T05:04:17.329Z,5.63
2018-08-06T05:05:17.323Z,5.63
2018-08-06T05:06:17.317Z,5.63
2018-08-06T05:07:17.311Z,5.63
2018-08-06T05:08:17.302Z,5.63
2018-08-06T05:09:17.294Z,5.63
2018-08-06T05:10:17.291Z,5.63
2018-08-06T05:11:17.291Z,5.63
2018-08-06T05:12:17.280Z,5.63
2018-08-06T05:13:17.274Z,5.63
2018-08-06T05:14:17.262Z,5.63
2018-08-06T05:15:17.254Z,5.63
2018-08-06T05:16:17.257Z,5.63
2018-08-06T05:17:17.242Z,5.63
2018-08-06T05:18:17.236Z,5.63
2018-08-06T05:19:17.234Z,5.63
2018-08-06T05:20:17.227Z,5.63
2018-08-06T05:21:17.217Z,5.63
2018-08-06T05:22:17.215Z,5.63
2018-08-06T05:23:17.207Z,5.63
2018-08-06T05:24:17.203Z,5.63
2018-08-06T05:25:17.189Z,5.63
2018-08-06T05:26:17.189Z,5.63
2018-08-06T05:27:17.177Z,5.63
2018-08-06T05:28:17.172Z,5.63
2018-08-06T05:29:17.170Z,5.63
2018-08-06T05:30:17.167Z,5.63
2018-08-06T05:31:17.188Z,5.63
2018-08-06T05:32:17.153Z,5.63
2018-08-06T05:33:17.148Z,5.63
2018-08-06T05:34:17.135Z,5.63
2018-08-06T05:35:17.131Z,5.63
2018-08-06T05:36:17.120Z,5.63
2018-08-06T05:37:17.118Z,5.63
2018-08-06T05:38:17.116Z,5.63
2018-08-06T05:39:17.102Z,5.63
2018-08-06T05:40:17.101Z,5.63
2018-08-06T05:41:17.090Z,5.63
2018-08-06T05:42:17.077Z,5.63
2018-08-06T05:43:17.078Z,5.63
2018-08-06T05:44:17.073Z,5.63
2018-08-06T05:45:17.105Z,5.63
2018-08-06T05:46:17.062Z,5.63
2018-08-06T05:47:17.049Z,5.63
2018-08-06T05:48:17.112Z,5.63
2018-08-06T05:49:17.035Z,5.63
2018-08-06T05:50:17.029Z,5.63
2018-08-06T05:51:17.022Z,5.63
2018-08-06T05:52:17.019Z,5.63
2018-08-06T05:53:17.012Z,5.63
2018-08-06T05:54:17.008Z,5.63
2018-08-06T05:55:17.002Z,5.63
2018-08-06T05:56:16.999Z,5.63
2018-08-06T05:57:16.990Z,5.63
2018-08-06T05:58:17.003Z,11.25
2018-08-06T05:59:16.974Z,11.25
2018-08-06T06:00:16.969Z,11.25
2018-08-06T06:01:16.965Z,11.25
2018-08-06T06:02:16.956Z,11.25
2018-08-06T06:03:16.971Z,11.25
2018-08-06T06:04:16.946Z,11.25
2018-08-06T06:05:16.944Z,11.25
2018-08-06T06:06:16.932Z,11.25
2018-08-06T06:07:16.925Z,11.25
2018-08-06T06:08:16.921Z,11.25
2018-08-06T06:09:16.908Z,11.25
2018-08-06T06:10:16.909Z,11.25
2018-08-06T06:11:16.903Z,11.25
2018-08-06T06:12:16.891Z,11.25
2018-08-06T06:13:16.888Z,11.25
2018-08-06T06:14:16.881Z,11.25
2018-08-06T06:15:16.876Z,11.25
2018-08-06T06:16:16.867Z,11.25
2018-08-06T06:17:16.859Z,11.25
2018-08-06T06:18:16.855Z,11.25
2018-08-06T06:19:16.912Z,11.25
2018-08-06T06:20:16.844Z,11.25
2018-08-06T06:21:16.830Z,16.88
2018-08-06T06:22:16.824Z,28.13
2018-08-06T06:23:16.817Z,33.75
2018-08-06T06:24:16.818Z,33.75
2018-08-06T06:25:16.819Z,33.75
2018-08-06T06:26:16.801Z,33.75
2018-08-06T06:27:16.797Z,39.38
2018-08-06T06:28:16.795Z,39.38
2018-08-06T06:29:16.784Z,39.38
2018-08-06T06:30:16.779Z,39.38
2018-08-06T06:31:16.793Z,39.38
2018-08-06T06:32:16.764Z,39.38
2018-08-06T06:33:16.758Z,39.38
2018-08-06T06:34:16.751Z,39.38
2018-08-06T06:35:16.749Z,39.38
2018-08-06T06:36:16.738Z,39.38
2018-08-06T06:37:16.732Z,45.00
2018-08-06T06:38:16.725Z,45.00
2018-08-06T06:39:16.718Z,45.00
2018-08-06T06:40:16.718Z,45.00
2018-08-06T06:41:16.704Z,45.00
2018-08-06T06:42:16.700Z,45.00
2018-08-06T06:43:16.701Z,45.00
2018-08-06T06:44:16.697Z,45.00
2018-08-06T06:45:16.682Z,39.38
2018-08-06T06:46:16.677Z,45.00
2018-08-06T06:47:16.675Z,50.63
2018-08-06T06:48:16.667Z,50.63
2018-08-06T06:49:16.711Z,50.63
2018-08-06T06:50:16.660Z,50.63
2018-08-06T06:51:16.646Z,50.63
2018-08-06T06:52:16.650Z,50.63
2018-08-06T06:53:16.641Z,50.63
2018-08-06T06:54:16.663Z,50.63
2018-08-06T06:55:16.627Z,50.63
2018-08-06T06:56:16.621Z,50.63
2018-08-06T06:57:16.614Z,56.25
2018-08-06T06:58:16.630Z,50.63
2018-08-06T06:59:16.647Z,45.00
2018-08-06T07:00:16.600Z,56.25
2018-08-06T07:01:16.593Z,56.25
2018-08-06T07:02:16.589Z,50.63
2018-08-06T07:03:16.581Z,50.63
2018-08-06T07:04:16.577Z,56.25
2018-08-06T07:05:16.565Z,56.25
2018-08-06T07:06:16.609Z,56.25
2018-08-06T07:07:16.562Z,56.25
2018-08-06T07:08:16.557Z,56.25
2018-08-06T07:09:16.548Z,56.25
2018-08-06T07:10:16.539Z,56.25
2018-08-06T07:11:16.539Z,56.25
2018-08-06T07:12:16.529Z,56.25
2018-08-06T07:13:16.525Z,56.25
2018-08-06T07:14:16.520Z,61.88
2018-08-06T07:15:16.520Z,61.88
2018-08-06T07:16:16.506Z,61.88
2018-08-06T07:17:16.502Z,61.88
2018-08-06T07:18:16.503Z,56.25
2018-08-06T07:19:16.497Z,56.25
2018-08-06T07:20:16.505Z,39.38
2018-08-06T07:21:16.478Z,39.38
2018-08-06T07:22:16.477Z,45.00
2018-08-06T07:23:16.476Z,50.63
2018-08-06T07:24:16.468Z,33.75
2018-08-06T07:25:16.456Z,39.38
2018-08-06T07:26:16.457Z,56.25
2018-08-06T07:27:16.457Z,50.63
2018-08-06T07:28:16.448Z,56.25
2018-08-06T07:29:16.442Z,33.75
2018-08-06T07:30:16.433Z,61.88
2018-08-06T07:31:16.431Z,39.38
2018-08-06T07:32:16.424Z,67.50
2018-08-06T07:33:16.419Z,50.63
2018-08-06T07:34:16.412Z,50.63
2018-08-06T07:35:16.413Z,45.00
2018-08-06T07:36:16.404Z,39.38
2018-08-06T07:37:16.396Z,39.38
2018-08-06T07:38:16.401Z,56.25
2018-08-06T07:39:16.395Z,56.25
2018-08-06T07:40:16.390Z,56.25
2018-08-06T07:41:16.378Z,61.88
2018-08-06T07:42:16.373Z,61.88
2018-08-06T07:43:16.461Z,61.88
2018-08-06T07:44:16.368Z,56.25
2018-08-06T07:45:16.356Z,56.25
2018-08-06T07:46:16.350Z,45.00
2018-08-06T07:47:16.349Z,45.00
2018-08-06T07:48:16.344Z,61.88
2018-08-06T07:49:16.338Z,56.25
2018-08-06T07:50:16.338Z,56.25
2018-08-06T07:51:16.327Z,50.63
2018-08-06T07:52:16.321Z,50.63
2018-08-06T07:53:16.317Z,45.00
2018-08-06T07:54:16.311Z,45.00
2018-08-06T07:55:16.308Z,50.63
2018-08-06T07:56:16.305Z,56.25
2018-08-06T07:57:16.297Z,56.25
2018-08-06T07:58:16.291Z,61.88
2018-08-06T07:59:16.293Z,61.88
2018-08-06T08:00:16.286Z,67.50
2018-08-06T08:01:16.274Z,61.88
2018-08-06T08:02:16.268Z,61.88
2018-08-06T08:03:16.269Z,56.25
2018-08-06T08:04:16.273Z,61.88
2018-08-06T08:05:16.260Z,73.13
2018-08-06T08:06:16.268Z,67.50
2018-08-06T08:07:16.253Z,73.13
2018-08-06T08:08:16.253Z,61.88
2018-08-06T08:09:16.239Z,78.75
2018-08-06T08:10:16.237Z,84.38
2018-08-06T08:11:16.237Z,67.50
2018-08-06T08:12:16.228Z,78.75
2018-08-06T08:13:16.224Z,90.00
2018-08-06T08:14:16.220Z,73.13
2018-08-06T08:15:16.217Z,90.00
2018-08-06T08:16:16.207Z,90.00
2018-08-06T08:17:16.201Z,84.38
2018-08-06T08:18:16.200Z,90.00
2018-08-06T08:19:16.197Z,90.00
2018-08-06T08:20:16.409Z,90.00
2018-08-06T08:21:16.185Z,90.00
2018-08-06T08:22:16.181Z,90.00
2018-08-06T08:23:16.176Z,90.00
2018-08-06T08:24:16.176Z,90.00
2018-08-06T08:25:16.173Z,90.00
2018-08-06T08:26:16.170Z,84.38
2018-08-06T08:27:16.160Z,90.00
2018-08-06T08:28:16.160Z,67.50
2018-08-06T08:29:16.151Z,84.38
2018-08-06T08:30:16.148Z,67.50
2018-08-06T08:31:16.142Z,78.75
2018-08-06T08:32:16.131Z,67.50
2018-08-06T08:33:16.133Z,95.63
2018-08-06T08:34:16.128Z,95.63
2018-08-06T08:35:16.131Z,95.63
2018-08-06T08:36:16.120Z,95.63
2018-08-06T08:37:16.115Z,95.63
2018-08-06T08:38:16.111Z,95.63
2018-08-06T08:39:16.108Z,101.25
2018-08-06T08:40:16.104Z,95.63
2018-08-06T08:41:16.098Z,95.63
2018-08-06T08:42:16.094Z,95.63
2018-08-06T08:43:16.092Z,95.63
2018-08-06T08:44:16.087Z,95.63
2018-08-06T08:45:16.085Z,95.63
2018-08-06T08:46:16.080Z,95.63
2018-08-06T08:47:16.076Z,73.13
2018-08-06T08:48:16.071Z,90.00
2018-08-06T08:49:16.060Z,95.63
2018-08-06T08:50:16.071Z,95.63
2018-08-06T08:51:16.063Z,95.63
2018-08-06T08:52:16.089Z,95.63
2018-08-06T08:53:16.049Z,95.63
2018-08-06T08:54:16.047Z,95.63
2018-08-06T08:55:16.048Z,95.63
2018-08-06T08:56:16.040Z,95.63
2018-08-06T08:57:16.041Z,101.25
2018-08-06T08:58:16.034Z,101.25
2018-08-06T08:59:16.029Z,101.25
2018-08-06T09:00:16.026Z,101.25
2018-08-06T09:01:16.026Z,101.25
2018-08-06T09:02:16.016Z,101.25
2018-08-06T09:03:16.010Z,101.25
2018-08-06T09:04:16.015Z,101.25
2018-08-06T09:05:16.007Z,101.25
2018-08-06T09:06:16.005Z,101.25
2018-08-06T09:07:16.056Z,101.25
2018-08-06T09:08:15.997Z,101.25
2018-08-06T09:09:15.989Z,101.25
2018-08-06T09:10:15.993Z,101.25
2018-08-06T09:11:15.989Z,101.25
2018-08-06T09:12:15.981Z,106.88
2018-08-06T09:13:15.976Z,106.88
2018-08-06T09:14:15.976Z,101.25
2018-08-06T09:15:15.974Z,101.25
2018-08-06T09:16:15.964Z,101.25
2018-08-06T09:17:15.960Z,101.25
2018-08-06T09:18:15.964Z,101.25
2018-08-06T09:19:15.956Z,101.25
2018-08-06T09:20:15.955Z,101.25
2018-08-06T09:21:15.998Z,101.25
2018-08-06T09:22:15.949Z,101.25
2018-08-06T09:23:15.943Z,101.25
2018-08-06T09:24:15.939Z,101.25
2018-08-06T09:25:15.934Z,106.88
2018-08-06T09:26:15.933Z,106.88
2018-08-06T09:27:15.931Z,106.88
2018-08-06T09:28:15.927Z,112.50
2018-08-06T09:29:15.924Z,106.88
2018-08-06T09:30:15.918Z,101.25
2018-08-06T09:31:15.916Z,84.38
2018-08-06T09:32:15.911Z,45.00
2018-08-06T09:33:15.907Z,101.25
2018-08-06T09:34:15.904Z,101.25
2018-08-06T09:35:15.911Z,106.88
2018-08-06T09:36:15.901Z,106.88
2018-08-06T09:37:15.898Z,106.88
2018-08-06T09:38:15.895Z,106.88
2018-08-06T09:39:15.888Z,106.88
2018-08-06T09:40:15.896Z,101.25
2018-08-06T09:41:15.880Z,106.88
2018-08-06T09:42:15.877Z,106.88
2018-08-06T09:43:15.875Z,106.88
2018-08-06T09:44:15.874Z,106.88
2018-08-06T09:45:15.867Z,112.50
2018-08-06T09:46:15.862Z,112.50
2018-08-06T09:47:15.862Z,112.50
2018-08-06T09:48:15.863Z,112.50
2018-08-06T09:49:15.852Z,112.50
2018-08-06T09:50:15.855Z,118.13
2018-08-06T09:51:15.846Z,112.50
2018-08-06T09:52:15.848Z,112.50
2018-08-06T09:53:15.844Z,112.50
2018-08-06T09:54:15.839Z,112.50
2018-08-06T09:55:15.837Z,112.50
2018-08-06T09:56:15.832Z,112.50
2018-08-06T09:57:15.828Z,112.50
2018-08-06T09:58:15.828Z,112.50
2018-08-06T09:59:15.824Z,112.50
2018-08-06T10:00:15.828Z,112.50
2018-08-06T10:01:15.816Z,112.50
2018-08-06T10:02:15.812Z,112.50
2018-08-06T10:03:15.812Z,112.50
2018-08-06T10:04:15.806Z,112.50
2018-08-06T10:05:15.835Z,112.50
2018-08-06T10:06:15.861Z,112.50
2018-08-06T10:07:15.797Z,112.50
2018-08-06T10:08:15.798Z,112.50
2018-08-06T10:09:15.796Z,112.50
2018-08-06T10:10:15.785Z,112.50
2018-08-06T10:11:15.790Z,112.50
2018-08-06T10:12:15.784Z,112.50
2018-08-06T10:13:15.774Z,112.50
2018-08-06T10:14:15.773Z,112.50
2018-08-06T10:15:15.773Z,112.50
2018-08-06T10:16:15.770Z,112.50
2018-08-06T10:17:15.766Z,112.50
2018-08-06T10:18:15.768Z,112.50
2018-08-06T10:19:15.881Z,112.50
2018-08-06T10:20:15.761Z,112.50
2018-08-06T10:21:15.758Z,112.50
2018-08-06T10:22:15.747Z,112.50
2018-08-06T10:23:15.748Z,112.50
2018-08-06T10:24:15.748Z,112.50
2018-08-06T10:25:15.743Z,112.50
2018-08-06T10:26:15.744Z,118.13
2018-08-06T10:27:15.742Z,118.13
2018-08-06T10:28:15.734Z,118.13
2018-08-06T10:29:15.731Z,123.75
2018-08-06T10:30:15.775Z,123.75
2018-08-06T10:31:15.731Z,123.75
2018-08-06T10:32:15.726Z,123.75
2018-08-06T10:33:15.718Z,112.50
2018-08-06T10:34:15.716Z,123.75
2018-08-06T10:35:15.718Z,129.38
2018-08-06T10:36:15.716Z,101.25
2018-08-06T10:37:15.712Z,84.38
2018-08-06T10:38:15.708Z,73.13
2018-08-06T10:39:15.708Z,39.38
2018-08-06T10:40:15.748Z,39.38
2018-08-06T10:41:15.704Z,45.00
2018-08-06T10:42:15.696Z,135.00
2018-08-06T10:43:15.696Z,129.38
2018-08-06T10:44:15.693Z,129.38
2018-08-06T10:45:15.686Z,67.50
2018-08-06T10:46:15.687Z,135.00
2018-08-06T10:47:15.689Z,135.00
2018-08-06T10:48:15.689Z,135.00
2018-08-06T10:49:15.678Z,135.00
2018-08-06T10:50:15.672Z,135.00
2018-08-06T10:51:15.675Z,135.00
2018-08-06T10:52:15.671Z,140.63
2018-08-06T10:53:15.671Z,135.00
2018-08-06T10:54:15.662Z,140.63
2018-08-06T10:55:15.663Z,135.00
2018-08-06T10:56:15.658Z,135.00
2018-08-06T10:57:15.658Z,135.00
2018-08-06T10:58:15.654Z,112.50
2018-08-06T10:59:15.654Z,78.75
2018-08-06T11:00:15.646Z,45.00
2018-08-06T11:01:15.648Z,45.00
2018-08-06T11:02:15.644Z,45.00
2018-08-06T11:03:15.640Z,45.00
2018-08-06T11:04:15.641Z,50.63
2018-08-06T11:05:15.637Z,56.25
2018-08-06T11:06:15.633Z,73.13
2018-08-06T11:07:15.633Z,135.00
2018-08-06T11:08:15.633Z,56.25
2018-08-06T11:09:15.625Z,45.00
2018-08-06T11:10:15.629Z,45.00
2018-08-06T11:11:15.629Z,45.00
2018-08-06T11:12:15.622Z,45.00
2018-08-06T11:13:15.622Z,50.63
2018-08-06T11:14:15.613Z,112.50
2018-08-06T11:15:15.616Z,163.13
2018-08-06T11:16:15.613Z,95.63
2018-08-06T11:17:15.609Z,78.75
2018-08-06T11:18:15.606Z,101.25
2018-08-06T11:19:15.645Z,78.75
2018-08-06T11:20:15.605Z,61.88
2018-08-06T11:21:15.603Z,90.00
2018-08-06T11:22:15.599Z,151.88
2018-08-06T11:23:15.593Z,151.88
2018-08-06T11:24:15.596Z,146.25
2018-08-06T11:25:15.581Z,146.25
2018-08-06T11:26:15.584Z,151.88
2018-08-06T11:27:15.594Z,151.88
2018-08-06T11:28:15.579Z,151.88
2018-08-06T11:29:15.579Z,151.88
2018-08-06T11:30:15.580Z,151.88
2018-08-06T11:31:15.579Z,151.88
2018-08-06T11:32:15.575Z,151.88
2018-08-06T11:33:15.566Z,151.88
2018-08-06T11:34:15.569Z,151.88
2018-08-06T11:35:15.579Z,151.88
2018-08-06T11:36:15.567Z,151.88
2018-08-06T11:37:15.558Z,146.25
2018-08-06T11:38:15.561Z,146.25
2018-08-06T11:39:15.552Z,146.25
2018-08-06T11:40:15.555Z,146.25
2018-08-06T11:41:15.552Z,146.25
2018-08-06T11:42:15.550Z,146.25
2018-08-06T11:43:15.550Z,101.25
2018-08-06T11:44:15.548Z,140.63
2018-08-06T11:45:15.543Z,90.00
2018-08-06T11:46:15.543Z,33.75
2018-08-06T11:47:15.541Z,28.13
2018-08-06T11:48:15.535Z,28.13
2018-08-06T11:49:15.532Z,28.13
2018-08-06T11:50:15.536Z,28.13
2018-08-06T11:51:15.532Z,28.13
2018-08-06T11:52:15.528Z,28.13
2018-08-06T11:53:15.535Z,28.13
2018-08-06T11:54:15.525Z,28.13
2018-08-06T11:55:15.527Z,28.13
2018-08-06T11:56:15.516Z,28.13
2018-08-06T11:57:15.516Z,28.13
2018-08-06T11:58:15.516Z,28.13
2018-08-06T11:59:15.515Z,28.13
2018-08-06T12:00:15.509Z,28.13
2018-08-06T12:01:15.513Z,28.13
2018-08-06T12:02:15.507Z,28.13
2018-08-06T12:03:15.507Z,28.13
2018-08-06T12:04:15.501Z,28.13
2018-08-06T12:05:15.503Z,28.13
2018-08-06T12:06:15.501Z,28.13
2018-08-06T12:07:15.497Z,28.13
2018-08-06T12:08:15.495Z,28.13
2018-08-06T12:09:15.484Z,28.13
2018-08-06T12:10:15.486Z,33.75
2018-08-06T12:11:15.493Z,33.75
2018-08-06T12:12:15.482Z,33.75
2018-08-06T12:13:15.481Z,33.75
2018-08-06T12:14:15.476Z,33.75
2018-08-06T12:15:15.498Z,33.75
2018-08-06T12:16:15.473Z,33.75
2018-08-06T12:17:15.465Z,39.38
2018-08-06T12:18:15.466Z,39.38
2018-08-06T12:19:15.464Z,39.38
2018-08-06T12:20:15.522Z,39.38
2018-08-06T12:21:15.459Z,39.38
2018-08-06T12:22:15.457Z,45.00
2018-08-06T12:23:15.455Z,56.25
2018-08-06T12:24:15.450Z,56.25
2018-08-06T12:25:15.445Z,61.88
2018-08-06T12:26:15.575Z,67.50
2018-08-06T12:27:15.474Z,67.50
2018-08-06T12:28:15.441Z,73.13
2018-08-06T12:29:15.432Z,84.38
2018-08-06T12:30:15.432Z,90.00
2018-08-06T12:31:15.429Z,106.88
2018-08-06T12:32:15.422Z,101.25
2018-08-06T12:33:15.417Z,112.50
2018-08-06T12:34:15.419Z,112.50
2018-08-06T12:35:15.414Z,112.50
2018-08-06T12:36:15.411Z,112.50
2018-08-06T12:37:15.405Z,118.13
2018-08-06T12:38:15.450Z,112.50
2018-08-06T12:39:15.404Z,106.88
2018-08-06T12:40:15.398Z,90.00
2018-08-06T12:41:15.398Z,73.13
2018-08-06T12:42:15.393Z,61.88
2018-08-06T12:43:15.390Z,61.88
2018-08-06T12:44:15.388Z,61.88
2018-08-06T12:45:15.386Z,67.50
2018-08-06T12:46:15.435Z,73.13
2018-08-06T12:47:15.384Z,73.13
2018-08-06T12:48:15.377Z,67.50
2018-08-06T12:49:15.376Z,67.50
2018-08-06T12:50:15.374Z,78.75
2018-08-06T12:51:15.374Z,90.00
2018-08-06T12:52:15.369Z,73.13
2018-08-06T12:53:15.363Z,78.75
2018-08-06T12:54:15.367Z,61.88
2018-08-06T12:55:15.361Z,56.25
2018-08-06T12:56:15.358Z,56.25
2018-08-06T12:57:15.380Z,50.63
2018-08-06T12:58:15.350Z,50.63
2018-08-06T12:59:15.354Z,56.25